METAR Reports From Nearby Airports

 

KLUD - Decatur, Texas, USA
Distance from Wildwood: ØSØ 5mi, 8km
Oppdatert: Nov 12, 2019 4:35am
Klart
Klart
 Vind fra NNV
Vind: NNV 9 mph , 15 km/h, Vindkast: 16 mph , 26 km/h
Temperatur: 21°F , -6°C
Wind Chill: 11°F , -12°C
Duggpunkt: 10°F , -12°C
Fuktighet: 63%
Barometer: 30.63 inHg , 1037.3 hPa
Clouds: Klart
Visibility: 10 miles , 16 km
2019/11/12 10:35 KLUD 121035Z AUTO 34008G14KT 310V010 10SM CLR M06/M12 A3063 RMK AO2 T10621122
KXBP - Bridgeport, Texas, USA
Distance from Wildwood: VSV 11mi, 18km
Oppdatert: Nov 12, 2019 4:35am
Klart
Klart
 Vind fra N
Vind: N 9 mph , 15 km/h, Vindkast: 18 mph , 30 km/h
Temperatur: 23°F , -5°C
Wind Chill: 13°F , -11°C
Duggpunkt: 10°F , -12°C
Fuktighet: 58%
Barometer: 30.68 inHg , 1038.9 hPa
Clouds: Klart
Visibility: 10 miles , 16 km
2019/11/12 10:35 KXBP 121035Z AUTO 36008G16KT 10SM CLR M05/M12 A3068 RMK AO2 T10551118
 
K0F2 - Bowie, Texas, USA
Distance from Wildwood: NNV 24mi, 39km
Oppdatert: Nov 12, 2019 4:35am
Klart
Klart
 Vind fra N
Vind: N 10 mph , 17 km/h
Temperatur: 23°F , -5°C
Wind Chill: 13°F , -11°C
Duggpunkt: 14°F , -10°C
Fuktighet: 68%
Barometer: 30.64 inHg , 1037.6 hPa
Clouds: Klart
Visibility: 10 miles , 16 km
2019/11/12 10:35 K0F2 121035Z AUTO 35009KT 10SM CLR M05/M10 A3064 RMK AO2 T10551100
KDTO - Denton, Texas, USA
Distance from Wildwood: Ø 27mi, 44km
Oppdatert: Nov 12, 2019 3:53am
Klart
Klart
 Vind fra N
Vind: N 18 mph , 30 km/h
Temperatur: 23°F , -5°C
Wind Chill: 9°F , -13°C
Duggpunkt: 10°F , -12°C
Fuktighet: 58%
Barometer: 30.63 inHg , 1037.3 hPa
Clouds: Klart
Visibility: 10 miles , 16 km
2019/11/12 09:53 KDTO 120953Z AUTO 36016KT 10SM CLR M05/M12 A3063 RMK AO2 SLP379 T10501117
 
KAFW - Ft Worth/Allianc, Texas, USA
Distance from Wildwood: SØ 29mi, 46km
Oppdatert: Nov 12, 2019 3:53am
Partly Cloudy
Partly Cloudy
 Vind fra N
Vind: N 18 mph , 30 km/h
Temperatur: 25°F , -4°C
Wind Chill: 11°F , -12°C
Duggpunkt: 10°F , -12°C
Fuktighet: 54%
Barometer: 30.61 inHg , 1036.6 hPa
Clouds: Partly Cloudy
Visibility: 10 miles , 16 km
Cloud details: Few Clouds 25000 ft
Partly Cloudy 30000 ft
2019/11/12 09:53 KAFW 120953Z 36016KT 10SM FEW250 SCT300 M04/M12 A3061 RMK AO2 PK WND 36029/0908 SLP380 T10441117
KFTW - Fort Worth, Texas, USA
Distance from Wildwood: SSØ 34mi, 55km
Oppdatert: Nov 12, 2019 3:53am
Klart
Klart
 Vind fra N
Vind: N 22 mph , 35 km/h, Vindkast: 32 mph , 52 km/h
Temperatur: 23°F , -5°C
Wind Chill: 8°F , -13°C
Duggpunkt: 12°F , -11°C
Fuktighet: 63%
Barometer: 30.61 inHg , 1036.6 hPa
Clouds: Klart
Visibility: 10 miles , 16 km
2019/11/12 09:53 KFTW 120953Z 35019G28KT 10SM CLR M05/M11 A3061 RMK AO2 PK WND 34030/0900 SLP373 T10501111
 
KNFW - Fort Worth Nas, Texas, USA
Distance from Wildwood: SSØ 36mi, 58km
Oppdatert: Nov 12, 2019 3:52am
Lett snø, Klart
Lett snø, Klart
 Vind fra N
Vind: N 16 mph , 26 km/h
Temperatur: 28°F , -2°C
Wind Chill: 16°F , -9°C
Duggpunkt: 12°F , -11°C
Fuktighet: 51%
Barometer: 30.64 inHg , 1037.6 hPa
Oversikt: Light Snow
Clouds: Klart
Visibility: 9 miles , 14 km
2019/11/12 09:52 KNFW 120952Z AUTO 35014KT 9SM -SN CLR M02/M11 A3064 RMK AO2 PK WND 35029/0934 SLP354 P0000 T10171106 CHINO N VISNO N $
KGLE - Gainesville, Texas, USA
Distance from Wildwood: NØ 38mi, 61km
Oppdatert: Nov 04, 2019 8:15am
NOT Current

 Vind fra S
Vind: S 13 mph , 20 km/h, Vindkast: 18 mph , 30 km/h
Temperatur: 54°F , 12°C
Duggpunkt: 50°F , 10°C
Fuktighet: 88%
Barometer: 30.00 inHg , 1015.9 hPa
Visibility: 10 miles , 16 km
2019/11/04 14:15 KGLE 041415Z AUTO 17011G16KT 10SM 12/10 A3000 RMK AO2 T01170100
 
KMWL - Mineral Wells, Texas, USA
Distance from Wildwood: SV 41mi, 65km
Oppdatert: Nov 12, 2019 3:53am
Klart
Klart
 Vind fra N
Vind: N 16 mph , 26 km/h, Vindkast: 22 mph , 35 km/h
Temperatur: 21°F , -6°C
Wind Chill: 7°F , -14°C
Duggpunkt: 9°F , -13°C
Fuktighet: 58%
Barometer: 30.62 inHg , 1036.9 hPa
Clouds: Klart
Visibility: 10 miles , 16 km
2019/11/12 09:53 KMWL 120953Z AUTO 35014G19KT 10SM CLR M06/M13 A3062 RMK AO2 SLP379 T10561128
KDFW - Dallas/Ft Worth, Texas, USA
Distance from Wildwood: ØSØ 45mi, 73km
Oppdatert: Nov 12, 2019 3:53am
Few Clouds
Few Clouds
 Vind fra N
Vind: N 22 mph , 35 km/h, Vindkast: 30 mph , 48 km/h
Temperatur: 25°F , -4°C
Wind Chill: 10°F , -12°C
Duggpunkt: 12°F , -11°C
Fuktighet: 59%
Barometer: 30.58 inHg , 1035.6 hPa
Clouds: Few Clouds
Visibility: 10 miles , 16 km
Cloud details: Few Clouds 30000 ft
2019/11/12 09:53 KDFW 120953Z 01019G26KT 10SM FEW300 M04/M11 A3058 RMK AO2 PK WND 36027/0920 SLP361 T10441111 $